createdAt,value
2018-08-03T00:00:33.171Z,97097.00
2018-08-03T00:03:02.010Z,97101.00
2018-08-03T00:05:30.024Z,97107.00
2018-08-03T00:07:57.967Z,97094.00
2018-08-03T00:10:25.941Z,97097.00
2018-08-03T00:12:53.892Z,97096.00
2018-08-03T00:15:21.910Z,97086.00
2018-08-03T00:17:49.848Z,97085.00
2018-08-03T00:20:17.817Z,97087.00
2018-08-03T00:22:45.788Z,97085.00
2018-08-03T00:25:13.856Z,97080.00
2018-08-03T00:27:41.794Z,97080.00
2018-08-03T00:30:09.779Z,97080.00
2018-08-03T00:32:37.767Z,97086.00
2018-08-03T00:35:05.730Z,97089.00
2018-08-03T00:37:33.669Z,97081.00
2018-08-03T00:40:01.673Z,97080.00
2018-08-03T00:42:29.616Z,97090.00
2018-08-03T00:44:57.599Z,97089.00
2018-08-03T00:47:25.541Z,97080.00
2018-08-03T00:49:53.543Z,97075.00
2018-08-03T00:52:21.516Z,97070.00
2018-08-03T00:54:49.456Z,97079.00
2018-08-03T00:57:17.404Z,97079.00
2018-08-03T00:59:45.345Z,97083.00
2018-08-03T01:02:13.363Z,97088.00
2018-08-03T01:04:41.297Z,97090.00
2018-08-03T01:07:09.271Z,97086.00
2018-08-03T01:09:37.226Z,97087.00
2018-08-03T01:12:05.173Z,97095.00
2018-08-03T01:14:33.162Z,97091.00
2018-08-03T01:17:01.096Z,97087.00
2018-08-03T01:19:29.098Z,97094.00
2018-08-03T01:21:57.065Z,97088.00
2018-08-03T01:24:24.988Z,97091.00
2018-08-03T01:26:53.239Z,97082.00
2018-08-03T01:29:21.178Z,97085.00
2018-08-03T01:31:49.160Z,97087.00
2018-08-03T01:34:17.113Z,97089.00
2018-08-03T01:36:45.095Z,97080.00
2018-08-03T01:39:13.032Z,97082.00
2018-08-03T01:41:40.991Z,97083.00
2018-08-03T01:44:08.962Z,97080.00
2018-08-03T01:46:36.885Z,97080.00
2018-08-03T01:49:04.964Z,97069.00
2018-08-03T01:51:32.863Z,97075.00
2018-08-03T01:54:00.874Z,97066.00
2018-08-03T01:56:28.793Z,97062.00
2018-08-03T01:58:56.872Z,97067.00
2018-08-03T02:01:24.800Z,97075.00
2018-08-03T02:03:52.886Z,97065.00
2018-08-03T02:06:20.947Z,97065.00
2018-08-03T02:08:48.886Z,97068.00
2018-08-03T02:11:16.842Z,97059.00
2018-08-03T02:13:44.747Z,97069.00
2018-08-03T02:16:12.697Z,97066.00
2018-08-03T02:18:40.642Z,97064.00
2018-08-03T02:21:08.574Z,97064.00
2018-08-03T02:23:36.583Z,97066.00
2018-08-03T02:26:04.521Z,97068.00
2018-08-03T02:28:32.513Z,97062.00
2018-08-03T02:31:00.471Z,97060.00
2018-08-03T02:33:28.415Z,97051.00
2018-08-03T02:35:56.400Z,97052.00
2018-08-03T02:38:24.445Z,97047.00
2018-08-03T02:40:52.494Z,97053.00
2018-08-03T02:43:20.511Z,97053.00
2018-08-03T02:45:48.491Z,97045.00
2018-08-03T02:48:16.426Z,97044.00
2018-08-03T02:50:44.460Z,97044.00
2018-08-03T02:53:12.446Z,97054.00
2018-08-03T02:55:40.381Z,97045.00
2018-08-03T02:58:08.365Z,97044.00
2018-08-03T03:00:36.315Z,97043.00
2018-08-03T03:03:04.244Z,97047.00
2018-08-03T03:05:32.253Z,97046.00
2018-08-03T03:08:00.176Z,97045.00
2018-08-03T03:10:28.120Z,97048.00
2018-08-03T03:12:56.097Z,97044.00
2018-08-03T03:15:24.116Z,97052.00
2018-08-03T03:17:52.054Z,97050.00
2018-08-03T03:20:20.019Z,97054.00
2018-08-03T03:22:47.953Z,97054.00
2018-08-03T03:25:16.043Z,97053.00
2018-08-03T03:27:43.976Z,97059.00
2018-08-03T03:30:11.956Z,97050.00
2018-08-03T03:32:39.981Z,97059.00
2018-08-03T03:35:07.892Z,97058.00
2018-08-03T03:37:35.838Z,97059.00
2018-08-03T03:40:03.815Z,97057.00
2018-08-03T03:42:31.788Z,97056.00
2018-08-03T03:44:59.766Z,97056.00
2018-08-03T03:47:27.747Z,97059.00
2018-08-03T03:49:55.715Z,97061.00
2018-08-03T03:52:23.684Z,97060.00
2018-08-03T03:54:51.726Z,97062.00
2018-08-03T03:57:19.681Z,97058.00
2018-08-03T03:59:47.650Z,97062.00
2018-08-03T04:02:15.608Z,97057.00
2018-08-03T04:04:43.530Z,97060.00
2018-08-03T04:07:11.503Z,97066.00
2018-08-03T04:09:39.473Z,97059.00
2018-08-03T04:12:07.453Z,97054.00
2018-08-03T04:14:35.393Z,97053.00
2018-08-03T04:17:03.365Z,97060.00
2018-08-03T04:19:31.354Z,97043.00
2018-08-03T04:21:59.340Z,97058.00
2018-08-03T04:24:27.306Z,97049.00
2018-08-03T04:26:55.278Z,97054.00
2018-08-03T04:29:23.277Z,97063.00
2018-08-03T04:31:51.240Z,97058.00
2018-08-03T04:34:19.230Z,97058.00
2018-08-03T04:36:47.220Z,97051.00
2018-08-03T04:39:15.184Z,97065.00
2018-08-03T04:41:43.133Z,97061.00
2018-08-03T04:44:11.057Z,97065.00
2018-08-03T04:46:39.015Z,97062.00
2018-08-03T04:49:07.131Z,97060.00
2018-08-03T04:51:35.134Z,97066.00
2018-08-03T04:54:03.067Z,97062.00
2018-08-03T04:56:31.029Z,97066.00
2018-08-03T04:58:58.996Z,97059.00
2018-08-03T05:01:26.995Z,97058.00
2018-08-03T05:03:54.960Z,97066.00
2018-08-03T05:06:22.941Z,97057.00
2018-08-03T05:08:50.855Z,97057.00
2018-08-03T05:11:18.824Z,97066.00
2018-08-03T05:13:46.894Z,97069.00
2018-08-03T05:16:14.820Z,97068.00
2018-08-03T05:18:42.798Z,97065.00
2018-08-03T05:21:10.714Z,97063.00
2018-08-03T05:23:38.689Z,97063.00
2018-08-03T05:26:06.633Z,97061.00
2018-08-03T05:28:34.664Z,97059.00
2018-08-03T05:31:02.640Z,97055.00
2018-08-03T05:33:30.621Z,97056.00
2018-08-03T05:35:58.668Z,97068.00
2018-08-03T05:38:26.548Z,97067.00
2018-08-03T05:40:54.535Z,97062.00
2018-08-03T05:43:22.468Z,97065.00
2018-08-03T05:45:50.580Z,97072.00
2018-08-03T05:48:18.549Z,97068.00
2018-08-03T05:50:46.555Z,97052.00
2018-08-03T05:53:14.568Z,97054.00
2018-08-03T05:55:42.602Z,97053.00
2018-08-03T05:58:10.576Z,97059.00
2018-08-03T06:00:38.536Z,97054.00
2018-08-03T06:03:06.605Z,97068.00
2018-08-03T06:05:34.540Z,97060.00
2018-08-03T06:08:02.541Z,97063.00
2018-08-03T06:10:30.484Z,97062.00
2018-08-03T06:12:58.501Z,97065.00
2018-08-03T06:15:26.467Z,97058.00
2018-08-03T06:17:54.412Z,97070.00
2018-08-03T06:20:22.407Z,97062.00
2018-08-03T06:22:50.339Z,97062.00
2018-08-03T06:25:18.310Z,97067.00
2018-08-03T06:27:46.248Z,97061.00
2018-08-03T06:30:14.211Z,97061.00
2018-08-03T06:32:42.161Z,97066.00
2018-08-03T06:35:10.154Z,97065.00
2018-08-03T06:37:38.096Z,97061.00
2018-08-03T06:40:06.182Z,97058.00
2018-08-03T06:42:34.146Z,97056.00
2018-08-03T06:45:02.121Z,97068.00
2018-08-03T06:47:30.570Z,97074.00
2018-08-03T06:49:58.584Z,97073.00
2018-08-03T06:52:26.547Z,97062.00
2018-08-03T06:54:54.517Z,97062.00
2018-08-03T06:57:22.548Z,97070.00
2018-08-03T06:59:50.458Z,97066.00
2018-08-03T07:02:18.391Z,97064.00
2018-08-03T07:04:46.344Z,97065.00
2018-08-03T07:07:14.319Z,97064.00
2018-08-03T07:09:42.273Z,97062.00
2018-08-03T07:12:10.207Z,97060.00
2018-08-03T07:14:38.297Z,97061.00
2018-08-03T07:17:06.229Z,97060.00
2018-08-03T07:19:34.263Z,97069.00
2018-08-03T07:22:02.203Z,97070.00
2018-08-03T07:24:30.187Z,97058.00
2018-08-03T07:26:58.174Z,97064.00
2018-08-03T07:29:26.144Z,97069.00
2018-08-03T07:31:54.118Z,97063.00
2018-08-03T07:34:22.061Z,97064.00
2018-08-03T07:36:50.072Z,97060.00
2018-08-03T07:39:17.974Z,97065.00
2018-08-03T07:41:45.926Z,97061.00
2018-08-03T07:44:13.888Z,97059.00
2018-08-03T07:46:41.787Z,97065.00
2018-08-03T07:49:09.750Z,97062.00
2018-08-03T07:51:37.778Z,97066.00
2018-08-03T07:54:05.814Z,97061.00
2018-08-03T07:56:33.740Z,97064.00
2018-08-03T07:59:01.710Z,97063.00
2018-08-03T08:01:29.644Z,97064.00
2018-08-03T08:03:57.602Z,97063.00
2018-08-03T08:06:25.497Z,97059.00
2018-08-03T08:08:53.481Z,97057.00
2018-08-03T08:11:21.457Z,97054.00
2018-08-03T08:13:49.499Z,97062.00
2018-08-03T08:16:17.421Z,97055.00
2018-08-03T08:18:45.346Z,97059.00
2018-08-03T08:21:13.317Z,97054.00
2018-08-03T08:23:41.262Z,97054.00
2018-08-03T08:26:09.239Z,97052.00
2018-08-03T08:28:37.180Z,97050.00
2018-08-03T08:31:05.235Z,97052.00
2018-08-03T08:33:33.152Z,97042.00
2018-08-03T08:36:01.133Z,97044.00
2018-08-03T08:38:29.069Z,97043.00
2018-08-03T08:40:57.112Z,97046.00
2018-08-03T08:43:25.043Z,97042.00
2018-08-03T08:45:52.970Z,97046.00
2018-08-03T08:48:20.945Z,97040.00
2018-08-03T08:50:48.864Z,97044.00
2018-08-03T08:53:16.823Z,97038.00
2018-08-03T08:55:44.765Z,97039.00
2018-08-03T08:58:12.741Z,97037.00
2018-08-03T09:00:40.663Z,97043.00
2018-08-03T09:03:08.609Z,97042.00
2018-08-03T09:05:36.529Z,97037.00
2018-08-03T09:08:04.490Z,97038.00
2018-08-03T09:10:32.411Z,97036.00
2018-08-03T09:13:00.376Z,97034.00
2018-08-03T09:15:28.309Z,97038.00
2018-08-03T09:17:56.232Z,97026.00
2018-08-03T09:20:24.201Z,97018.00
2018-08-03T09:22:52.119Z,97014.00
2018-08-03T09:25:20.110Z,97009.00
2018-08-03T09:27:48.018Z,97008.00
2018-08-03T09:30:15.992Z,97011.00
2018-08-03T09:32:43.919Z,97009.00
2018-08-03T09:35:11.874Z,96999.00
2018-08-03T09:37:39.821Z,97004.00
2018-08-03T09:40:07.768Z,96991.00
2018-08-03T09:42:35.730Z,96999.00
2018-08-03T09:45:04.124Z,96992.00
2018-08-03T09:47:32.089Z,96983.00
2018-08-03T09:50:00.025Z,96980.00
2018-08-03T09:52:27.980Z,96978.00
2018-08-03T09:54:55.896Z,96977.00
2018-08-03T09:57:23.886Z,96970.00
2018-08-03T09:59:51.836Z,96960.00
2018-08-03T10:02:19.852Z,96961.00
2018-08-03T10:04:47.805Z,96956.00
2018-08-03T10:07:15.806Z,96956.00
2018-08-03T10:09:43.727Z,96952.00
2018-08-03T10:12:11.639Z,96947.00
2018-08-03T10:14:39.606Z,96956.00
2018-08-03T10:17:07.519Z,96963.00
2018-08-03T10:19:35.464Z,96945.00
2018-08-03T10:22:03.422Z,96937.00
2018-08-03T10:24:31.427Z,96958.00
2018-08-03T10:26:59.470Z,96951.00
2018-08-03T10:29:27.473Z,96941.00
2018-08-03T10:31:55.396Z,96941.00
2018-08-03T10:34:23.345Z,96938.00
2018-08-03T10:36:51.332Z,96930.00
2018-08-03T10:39:19.258Z,96925.00
2018-08-03T10:41:47.213Z,96923.00
2018-08-03T10:44:15.142Z,96927.00
2018-08-03T10:46:43.099Z,96925.00
2018-08-03T10:49:11.016Z,96936.00
2018-08-03T10:51:38.941Z,96922.00
2018-08-03T10:54:06.905Z,96925.00
2018-08-03T10:56:34.825Z,96914.00
2018-08-03T10:59:02.798Z,96910.00
2018-08-03T11:01:30.856Z,96902.00
2018-08-03T11:03:58.699Z,96897.00
2018-08-03T11:06:26.640Z,96893.00
2018-08-03T11:08:54.568Z,96894.00
2018-08-03T11:11:22.523Z,96899.00
2018-08-03T11:13:50.641Z,96891.00
2018-08-03T11:16:18.394Z,96884.00
2018-08-03T11:18:46.311Z,96884.00
2018-08-03T11:21:14.297Z,96879.00
2018-08-03T11:23:42.227Z,96876.00
2018-08-03T11:26:10.167Z,96869.00
2018-08-03T11:28:38.100Z,96871.00
2018-08-03T11:31:06.005Z,96888.00
2018-08-03T11:33:33.992Z,96877.00
2018-08-03T11:36:01.982Z,96863.00
2018-08-03T11:38:29.951Z,96859.00
2018-08-03T11:40:57.963Z,96862.00
2018-08-03T11:43:25.983Z,96857.00
2018-08-03T11:45:53.933Z,96855.00
2018-08-03T11:48:21.925Z,96852.00
2018-08-03T11:50:49.886Z,96848.00
2018-08-03T11:53:17.802Z,96847.00
2018-08-03T11:55:45.739Z,96845.00
2018-08-03T11:58:13.693Z,96843.00
2018-08-03T12:00:41.697Z,96836.00
2018-08-03T12:03:09.631Z,96841.00
2018-08-03T12:05:37.544Z,96836.00
2018-08-03T12:08:05.488Z,96836.00
2018-08-03T12:10:33.446Z,96844.00
2018-08-03T12:13:01.435Z,96830.00
2018-08-03T12:15:29.457Z,96825.00
2018-08-03T12:17:57.535Z,96817.00
2018-08-03T12:20:25.435Z,96817.00
2018-08-03T12:22:53.397Z,96814.00
2018-08-03T12:25:21.341Z,96813.00
2018-08-03T12:27:49.317Z,96817.00
2018-08-03T12:30:17.288Z,96817.00
2018-08-03T12:32:45.201Z,96815.00
2018-08-03T12:35:13.148Z,96808.00
2018-08-03T12:37:41.086Z,96803.00
2018-08-03T12:40:09.025Z,96808.00
2018-08-03T12:42:36.949Z,96803.00
2018-08-03T12:45:04.891Z,96793.00
2018-08-03T12:47:32.899Z,96798.00
2018-08-03T12:50:00.824Z,96805.00
2018-08-03T12:52:28.838Z,96801.00
2018-08-03T12:54:56.722Z,96802.00
2018-08-03T12:57:24.713Z,96790.00
2018-08-03T12:59:52.667Z,96796.00
2018-08-03T13:02:20.597Z,96786.00
2018-08-03T13:04:48.519Z,96786.00
2018-08-03T13:07:16.586Z,96777.00
2018-08-03T13:09:44.431Z,96779.00
2018-08-03T13:12:12.450Z,96784.00
2018-08-03T13:14:40.411Z,96779.00
2018-08-03T13:17:08.567Z,96780.00
2018-08-03T13:19:36.591Z,96779.00
2018-08-03T13:22:04.549Z,96786.00
2018-08-03T13:24:32.539Z,96778.00
2018-08-03T13:27:00.460Z,96775.00
2018-08-03T13:29:28.458Z,96773.00
2018-08-03T13:31:56.354Z,96769.00
2018-08-03T13:34:24.346Z,96779.00
2018-08-03T13:36:52.414Z,96775.00
2018-08-03T13:39:20.355Z,96788.00
2018-08-03T13:41:48.329Z,96758.00
2018-08-03T13:44:16.311Z,96763.00
2018-08-03T13:46:44.285Z,96769.00
2018-08-03T13:49:12.221Z,96765.00
2018-08-03T13:51:40.231Z,96759.00
2018-08-03T13:54:08.175Z,96763.00
2018-08-03T13:56:36.146Z,96765.00
2018-08-03T13:59:04.357Z,96765.00
2018-08-03T14:02:17.125Z,96797.00
2018-08-03T14:04:45.079Z,96779.00
2018-08-03T14:07:13.000Z,96763.00
2018-08-03T14:09:40.981Z,96764.00
2018-08-03T14:12:09.027Z,96768.00
2018-08-03T14:14:38.056Z,96762.00
2018-08-03T14:17:06.107Z,96751.00
2018-08-03T14:19:34.097Z,96751.00
2018-08-03T14:22:02.079Z,96673.00
2018-08-03T14:24:30.021Z,96505.00
2018-08-03T14:26:58.041Z,96523.00
2018-08-03T14:29:25.997Z,96514.00
2018-08-03T14:31:54.116Z,96511.00
2018-08-03T14:34:21.950Z,96680.00
2018-08-03T14:36:49.976Z,96793.00
2018-08-03T14:39:17.932Z,96803.00
2018-08-03T14:41:45.872Z,96498.00
2018-08-03T14:44:13.858Z,96500.00
2018-08-03T14:46:41.897Z,96475.00
2018-08-03T14:49:09.891Z,96490.00
2018-08-03T14:51:38.160Z,96487.00
2018-08-03T14:54:06.169Z,96652.00
2018-08-03T14:56:34.220Z,96796.00
2018-08-03T14:59:02.197Z,96784.00
2018-08-03T15:01:30.277Z,96466.00
2018-08-03T15:03:58.325Z,96454.00
2018-08-03T15:06:26.325Z,96778.00
2018-08-03T15:08:54.306Z,96460.00
2018-08-03T15:11:22.259Z,96449.00
2018-08-03T15:13:50.226Z,96757.00
2018-08-03T15:16:18.197Z,96785.00
2018-08-03T15:18:46.148Z,96440.00
2018-08-03T15:21:14.118Z,96458.00
2018-08-03T15:23:42.083Z,96456.00
2018-08-03T15:26:10.050Z,96456.00
2018-08-03T15:28:38.020Z,96446.00
2018-08-03T15:31:06.005Z,96445.00
2018-08-03T15:33:33.963Z,96447.00
2018-08-03T15:36:01.879Z,96436.00
2018-08-03T15:38:29.902Z,96440.00
2018-08-03T15:40:57.958Z,96443.00
2018-08-03T15:43:25.921Z,96680.00
2018-08-03T15:45:53.900Z,96702.00
2018-08-03T15:48:21.856Z,96701.00
2018-08-03T15:50:49.840Z,96704.00
2018-08-03T15:53:17.774Z,96707.00
2018-08-03T15:55:45.738Z,96710.00
2018-08-03T15:58:13.696Z,96719.00
2018-08-03T16:00:41.750Z,96700.00
2018-08-03T16:03:10.570Z,96705.00
2018-08-03T16:05:38.521Z,96704.00
2018-08-03T16:08:06.458Z,96706.00
2018-08-03T16:10:34.414Z,96704.00
2018-08-03T16:13:02.366Z,96694.00
2018-08-03T16:15:30.377Z,96697.00
2018-08-03T16:17:58.374Z,96691.00
2018-08-03T16:20:26.349Z,96690.00
2018-08-03T16:22:54.316Z,96694.00
2018-08-03T16:25:22.293Z,96691.00
2018-08-03T16:27:50.264Z,96690.00
2018-08-03T16:30:18.184Z,96693.00
2018-08-03T16:32:46.166Z,96697.00
2018-08-03T16:35:14.085Z,96694.00
2018-08-03T16:37:42.044Z,96693.00
2018-08-03T16:40:10.391Z,96698.00
2018-08-03T16:42:38.501Z,96691.00
2018-08-03T16:45:07.279Z,96691.00
2018-08-03T16:47:35.281Z,96698.00
2018-08-03T16:50:03.483Z,96698.00
2018-08-03T16:52:31.416Z,96697.00
2018-08-03T16:54:59.388Z,96701.00
2018-08-03T16:57:27.296Z,96705.00
2018-08-03T16:59:55.276Z,96701.00
2018-08-03T17:02:23.263Z,96699.00
2018-08-03T17:04:51.230Z,96701.00
2018-08-03T17:07:19.321Z,96703.00
2018-08-03T17:09:47.258Z,96707.00
2018-08-03T17:12:15.255Z,96706.00
2018-08-03T17:14:43.275Z,96711.00
2018-08-03T17:17:11.269Z,96709.00
2018-08-03T17:19:39.224Z,96717.00
2018-08-03T17:22:07.152Z,96720.00
2018-08-03T17:24:35.145Z,96724.00
2018-08-03T17:27:03.074Z,96717.00
2018-08-03T17:29:31.037Z,96722.00
2018-08-03T17:31:59.028Z,96730.00
2018-08-03T17:34:27.002Z,96725.00
2018-08-03T17:36:54.994Z,96735.00
2018-08-03T17:39:22.943Z,96736.00
2018-08-03T17:41:50.874Z,96741.00
2018-08-03T17:44:18.853Z,96741.00
2018-08-03T17:46:46.832Z,96749.00
2018-08-03T17:49:14.774Z,96751.00
2018-08-03T17:51:42.769Z,96757.00
2018-08-03T17:54:10.714Z,96753.00
2018-08-03T17:56:38.696Z,96757.00
2018-08-03T17:59:06.727Z,96761.00
2018-08-03T18:01:34.767Z,96761.00
2018-08-03T18:04:02.733Z,96758.00
2018-08-03T18:06:30.721Z,96761.00
2018-08-03T18:08:58.728Z,96762.00
2018-08-03T18:11:26.715Z,96770.00
2018-08-03T18:13:54.713Z,96773.00
2018-08-03T18:16:22.675Z,96772.00
2018-08-03T18:18:50.786Z,96772.00
2018-08-03T18:21:18.705Z,96794.00
2018-08-03T18:23:46.663Z,96800.00
2018-08-03T18:26:14.642Z,96803.00
2018-08-03T18:28:42.715Z,96809.00
2018-08-03T18:31:10.665Z,96816.00
2018-08-03T18:33:38.653Z,96810.00
2018-08-03T18:36:06.668Z,96816.00
2018-08-03T18:38:34.598Z,96815.00
2018-08-03T18:41:02.580Z,96815.00
2018-08-03T18:43:30.522Z,96811.00
2018-08-03T18:45:58.534Z,96815.00
2018-08-03T18:48:26.440Z,96815.00
2018-08-03T18:50:54.423Z,96814.00
2018-08-03T18:53:22.366Z,96814.00
2018-08-03T18:55:50.284Z,96824.00
2018-08-03T18:58:18.269Z,96823.00
2018-08-03T19:00:46.180Z,96823.00
2018-08-03T19:03:14.141Z,96833.00
2018-08-03T19:05:42.115Z,96831.00
2018-08-03T19:08:10.108Z,96829.00
2018-08-03T19:10:38.205Z,96838.00
2018-08-03T19:13:06.183Z,96839.00
2018-08-03T19:15:34.143Z,96839.00
2018-08-03T19:18:02.085Z,96852.00
2018-08-03T19:20:30.029Z,96840.00
2018-08-03T19:22:57.998Z,96841.00
2018-08-03T19:25:25.926Z,96841.00
2018-08-03T19:27:53.894Z,96842.00
2018-08-03T19:30:21.926Z,96840.00
2018-08-03T19:32:49.837Z,96846.00
2018-08-03T19:35:17.805Z,96845.00
2018-08-03T19:37:45.745Z,96843.00
2018-08-03T19:40:13.753Z,96843.00
2018-08-03T19:42:41.693Z,96852.00
2018-08-03T19:45:09.722Z,96856.00
2018-08-03T19:47:37.585Z,96849.00
2018-08-03T19:50:06.535Z,96847.00
2018-08-03T19:52:34.524Z,96854.00
2018-08-03T19:55:02.412Z,96847.00
2018-08-03T19:57:30.394Z,96848.00
2018-08-03T19:59:58.382Z,96852.00
2018-08-03T20:02:26.347Z,96840.00
2018-08-03T20:04:54.328Z,96848.00
2018-08-03T20:07:22.277Z,96841.00
2018-08-03T20:09:50.206Z,96842.00
2018-08-03T20:12:18.180Z,96849.00
2018-08-03T20:14:46.168Z,96856.00
2018-08-03T20:17:14.097Z,96848.00
2018-08-03T20:19:44.882Z,96845.00
2018-08-03T20:22:15.902Z,96846.00
2018-08-03T20:24:43.971Z,96850.00
2018-08-03T20:27:12.271Z,96844.00
2018-08-03T20:29:40.277Z,96856.00
2018-08-03T20:32:08.208Z,96851.00
2018-08-03T20:34:36.622Z,96851.00
2018-08-03T20:37:04.701Z,96854.00
2018-08-03T20:39:32.759Z,96849.00
2018-08-03T20:42:00.754Z,96852.00
2018-08-03T20:44:29.096Z,96849.00
2018-08-03T20:46:57.042Z,96849.00
2018-08-03T20:49:25.062Z,96849.00
2018-08-03T20:51:53.036Z,96857.00
2018-08-03T20:54:21.008Z,96852.00
2018-08-03T20:56:48.979Z,96859.00
2018-08-03T20:59:16.908Z,96865.00
2018-08-03T21:01:44.903Z,96859.00
2018-08-03T21:04:12.839Z,96860.00
2018-08-03T21:06:40.755Z,96851.00
2018-08-03T21:09:10.504Z,96865.00
2018-08-03T21:11:38.423Z,96857.00
2018-08-03T21:14:06.435Z,96858.00
2018-08-03T21:16:34.924Z,96866.00
2018-08-03T21:19:03.721Z,96862.00
2018-08-03T21:21:31.776Z,96860.00
2018-08-03T21:23:59.743Z,96866.00
2018-08-03T21:26:27.850Z,96869.00
2018-08-03T21:28:55.791Z,96866.00
2018-08-03T21:31:23.752Z,96862.00
2018-08-03T21:33:51.670Z,96869.00
2018-08-03T21:36:19.646Z,96866.00
2018-08-03T21:38:47.616Z,96876.00
2018-08-03T21:41:15.540Z,96864.00
2018-08-03T21:43:43.547Z,96871.00
2018-08-03T21:46:11.450Z,96873.00
2018-08-03T21:48:39.422Z,96867.00
2018-08-03T21:51:07.371Z,96869.00
2018-08-03T21:53:35.313Z,96864.00
2018-08-03T21:56:03.269Z,96869.00
2018-08-03T21:58:31.218Z,96864.00
2018-08-03T22:00:59.220Z,96867.00
2018-08-03T22:03:27.174Z,96867.00
2018-08-03T22:05:55.136Z,96866.00
2018-08-03T22:08:23.071Z,96866.00
2018-08-03T22:10:51.137Z,96858.00
2018-08-03T22:13:19.221Z,96854.00
2018-08-03T22:15:47.205Z,96852.00
2018-08-03T22:18:15.161Z,96859.00
2018-08-03T22:20:43.132Z,96861.00
2018-08-03T22:23:11.097Z,96849.00
2018-08-03T22:25:39.044Z,96855.00
2018-08-03T22:28:06.992Z,96858.00
2018-08-03T22:30:35.003Z,96847.00
2018-08-03T22:33:03.040Z,96851.00
2018-08-03T22:35:30.874Z,96853.00
2018-08-03T22:37:59.012Z,96849.00
2018-08-03T22:40:26.948Z,96849.00
2018-08-03T22:42:54.959Z,96847.00
2018-08-03T22:45:22.925Z,96855.00
2018-08-03T22:47:50.853Z,96849.00
2018-08-03T22:50:18.957Z,96842.00
2018-08-03T22:52:46.946Z,96844.00
2018-08-03T22:55:14.900Z,96844.00
2018-08-03T22:57:42.827Z,96841.00
2018-08-03T23:00:10.803Z,96834.00
2018-08-03T23:02:38.729Z,96836.00
2018-08-03T23:05:06.723Z,96840.00
2018-08-03T23:07:34.657Z,96830.00
2018-08-03T23:10:02.669Z,96834.00
2018-08-03T23:12:30.589Z,96832.00
2018-08-03T23:14:58.573Z,96835.00
2018-08-03T23:17:26.537Z,96839.00
2018-08-03T23:19:54.484Z,96835.00
2018-08-03T23:22:22.462Z,96833.00
2018-08-03T23:24:50.399Z,96839.00
2018-08-03T23:27:18.365Z,96831.00
2018-08-03T23:29:46.288Z,96838.00
2018-08-03T23:32:14.257Z,96835.00
2018-08-03T23:34:42.224Z,96835.00
2018-08-03T23:37:10.192Z,96830.00
2018-08-03T23:39:38.119Z,96829.00
2018-08-03T23:42:06.072Z,96829.00
2018-08-03T23:44:34.093Z,96827.00
2018-08-03T23:47:02.017Z,96826.00
2018-08-03T23:49:29.959Z,96822.00
2018-08-03T23:51:57.874Z,96818.00
2018-08-03T23:54:25.826Z,96810.00
2018-08-03T23:56:53.745Z,96825.00
2018-08-03T23:59:21.702Z,96814.00
